»·PEaware :: N203WA KMHV-KSMX

N203WA :: KMHV-KSMX

FLIGHT INFORMATION

Flight Status: Arrived
Operator: Privately registered:
United States
More flights under this callsign
Pilot: Scott R. (7279)
Aircraft: Unknown
(G58)
More flights by this aircraft type
Origin: KMHV Mojave
United States
Destination: KSMX Santa Maria Pub/Capt Hancock
United States
More flights between these airports :: More routes between these airports
Route: +JERID5 JERID LHS FIM RZS GVO
File this flight plan on PilotEdge
Remarks:
Altitude:
(Current/Filed)
10,000ft
Speed:
(Current/Filed)
180kts
Departed: 14-Mar-17 04:48 PM
Arrived: 14-Mar-17 05:43 PM
Distance/Time
Traveled:
113nm/0:55
Distance/Time
To Go:
Arrived

Flight Plot

Page will automatically refresh every two minutes.

Flight plan parsing failed; only flown route is shown


Map Options




Map Legend


Flown Route
Filed Route
Departure Airport
Arrival Airport
Navaid (VOR, NDB)
Fix

Horizontal Profiles

Position Reports

Time Latitude Longitude Heading Altitude Ground
Speed
14-Mar-17 16:16 35.057152 -118.165030 359 2791ft 0kts
14-Mar-17 16:17 35.057152 -118.165030 359 2791ft 0kts
14-Mar-17 16:18 35.057152 -118.165030 359 2791ft 0kts
14-Mar-17 16:19 35.057152 -118.165030 359 2791ft 0kts
14-Mar-17 16:20 35.057152 -118.165030 359 2791ft 0kts
14-Mar-17 16:21 35.057152 -118.165030 359 2791ft 0kts
14-Mar-17 16:22 35.057152 -118.165030 359 2791ft 0kts
14-Mar-17 16:23 35.057152 -118.165030 359 2791ft 0kts
14-Mar-17 16:24 35.057152 -118.165030 359 2791ft 0kts
14-Mar-17 16:25 35.057152 -118.165030 359 2791ft 0kts
14-Mar-17 16:26 35.057152 -118.165030 359 2791ft 0kts
14-Mar-17 16:27 35.057152 -118.165030 359 2791ft 0kts
14-Mar-17 16:28 35.057152 -118.165030 359 2791ft 0kts
14-Mar-17 16:29 35.057152 -118.165030 359 2791ft 0kts
14-Mar-17 16:30 35.057152 -118.165030 359 2791ft 0kts
14-Mar-17 16:31 35.057152 -118.165030 359 2791ft 0kts
14-Mar-17 16:32 35.057152 -118.165030 359 2791ft 0kts
14-Mar-17 16:33 35.057152 -118.165030 359 2791ft 0kts
14-Mar-17 16:34 35.057152 -118.165030 359 2791ft 0kts
14-Mar-17 16:35 35.057152 -118.165030 359 2791ft 0kts
14-Mar-17 16:36 35.057152 -118.165030 359 2791ft 0kts
14-Mar-17 16:37 35.057152 -118.165030 359 2791ft 0kts
14-Mar-17 16:38 35.057152 -118.165030 359 2791ft 0kts
14-Mar-17 16:39 35.057152 -118.165030 359 2791ft 0kts
14-Mar-17 16:40 35.057152 -118.165030 359 2791ft 0kts
14-Mar-17 16:41 35.057152 -118.165030 359 2791ft 0kts
14-Mar-17 16:42 35.057152 -118.165030 359 2791ft 0kts
14-Mar-17 16:43 35.057152 -118.165030 359 2791ft 0kts
14-Mar-17 16:44 35.057635 -118.162723 89 2791ft 23kts
14-Mar-17 16:45 35.057583 -118.151524 82 2791ft 29kts
14-Mar-17 16:46 35.057577 -118.143585 91 2791ft 12kts
14-Mar-17 16:47 35.058312 -118.142616 0 2791ft 0kts
14-Mar-17 16:48 35.059166 -118.142934 275 2791ft 0kts
14-Mar-17 16:49 35.059093 -118.166967 270 3221ft 115kts
14-Mar-17 16:50 35.044489 -118.203209 218 4250ft 137kts
14-Mar-17 16:51 35.014556 -118.233287 219 5326ft 143kts
14-Mar-17 16:52 34.984044 -118.264570 220 6284ft 145kts
14-Mar-17 16:53 34.952865 -118.296544 220 7194ft 147kts
14-Mar-17 16:54 34.921307 -118.328886 220 7989ft 149kts
14-Mar-17 16:55 34.889370 -118.361567 220 8691ft 151kts
14-Mar-17 16:56 34.859602 -118.392286 220 9275ft 153kts
14-Mar-17 16:57 34.827276 -118.426167 220 9838ft 154kts
14-Mar-17 16:58 34.793792 -118.461212 220 10068ft 168kts
14-Mar-17 16:59 34.757283 -118.499374 220 10063ft 173kts
14-Mar-17 17:00 34.720945 -118.537305 220 10063ft 172kts
14-Mar-17 17:01 34.684754 -118.575400 230 10057ft 172kts
14-Mar-17 17:02 34.675239 -118.631547 260 10064ft 171kts
14-Mar-17 17:03 34.667272 -118.688780 260 10063ft 172kts
14-Mar-17 17:04 34.659212 -118.745924 260 10063ft 171kts
14-Mar-17 17:05 34.651176 -118.802649 260 10063ft 170kts
14-Mar-17 17:06 34.643120 -118.859351 260 10063ft 170kts
14-Mar-17 17:07 34.635057 -118.915908 260 10063ft 170kts
14-Mar-17 17:08 34.626951 -118.972535 260 10063ft 170kts
14-Mar-17 17:09 34.619189 -119.026590 260 10127ft 168kts
14-Mar-17 17:10 34.611082 -119.082869 260 10127ft 169kts
14-Mar-17 17:11 34.604062 -119.131461 259 10127ft 170kts
14-Mar-17 17:12 34.595866 -119.187997 259 10127ft 170kts
14-Mar-17 17:13 34.587629 -119.244625 259 10127ft 170kts
14-Mar-17 17:14 34.579382 -119.301155 259 10127ft 170kts
14-Mar-17 17:15 34.571118 -119.357609 259 10127ft 170kts
14-Mar-17 17:16 34.562809 -119.414136 259 10128ft 170kts
14-Mar-17 17:17 34.554467 -119.470745 259 10127ft 171kts
14-Mar-17 17:18 34.546123 -119.527183 259 10127ft 171kts
14-Mar-17 17:19 34.537714 -119.583837 259 10127ft 171kts
14-Mar-17 17:20 34.529317 -119.640247 259 10127ft 171kts
14-Mar-17 17:21 34.520559 -119.698880 259 9813ft 182kts
14-Mar-17 17:22 34.511437 -119.759798 259 9419ft 184kts
14-Mar-17 17:23 34.512767 -119.821841 275 8962ft 184kts
14-Mar-17 17:24 34.517033 -119.882182 274 8251ft 176kts
14-Mar-17 17:25 34.521117 -119.940924 274 7551ft 174kts
14-Mar-17 17:26 34.525150 -119.999685 274 6850ft 174kts
14-Mar-17 17:27 34.529164 -120.058052 274 6150ft 174kts
14-Mar-17 17:28 34.543248 -120.106871 315 5501ft 170kts
14-Mar-17 17:29 34.574133 -120.143941 313 4761ft 142kts
14-Mar-17 17:30 34.599619 -120.175562 312 4535ft 134kts
14-Mar-17 17:31 34.627309 -120.210092 313 4406ft 155kts
14-Mar-17 17:32 34.658789 -120.249445 313 3632ft 148kts
14-Mar-17 17:33 34.683260 -120.279903 313 3629ft 124kts
14-Mar-17 17:34 34.707751 -120.310446 313 3626ft 124kts
14-Mar-17 17:35 34.726522 -120.342363 253 3629ft 120kts
14-Mar-17 17:36 34.692849 -120.346925 152 3635ft 157kts
14-Mar-17 17:37 34.685432 -120.307999 18 3631ft 163kts
14-Mar-17 17:38 34.725352 -120.330397 328 3629ft 165kts
14-Mar-17 17:39 34.765941 -120.358136 329 2831ft 165kts
14-Mar-17 17:40 34.801535 -120.382365 330 2363ft 132kts
14-Mar-17 17:41 34.831516 -120.403327 329 2003ft 126kts
14-Mar-17 17:42 34.859142 -120.418315 349 1549ft 114kts
14-Mar-17 17:43 34.886328 -120.437819 313 579ft 95kts
14-Mar-17 17:44 34.898270 -120.450309 0 261ft 29kts

Navigation Log

Ident Type
Flight plan parsing failed, navigation log unavailable